sensor_id;sensor_type;location;lat;lon;timestamp;P1;durP1;ratioP1;P2;durP2;ratioP2
25567;SDS011;13455;51.480;7.594;2023-07-31T00:00:55;5.53;;;2.40;;
25567;SDS011;13455;51.480;7.594;2023-07-31T00:03:20;6.73;;;2.77;;
25567;SDS011;13455;51.480;7.594;2023-07-31T00:05:46;4.33;;;2.40;;
25567;SDS011;13455;51.480;7.594;2023-07-31T00:08:11;6.65;;;2.85;;
25567;SDS011;13455;51.480;7.594;2023-07-31T00:10:37;6.60;;;2.78;;
25567;SDS011;13455;51.480;7.594;2023-07-31T00:13:02;5.47;;;2.60;;
25567;SDS011;13455;51.480;7.594;2023-07-31T00:15:28;5.63;;;2.75;;
25567;SDS011;13455;51.480;7.594;2023-07-31T00:17:54;5.82;;;2.70;;
25567;SDS011;13455;51.480;7.594;2023-07-31T00:20:20;8.55;;;2.63;;
25567;SDS011;13455;51.480;7.594;2023-07-31T00:22:45;6.20;;;2.53;;
25567;SDS011;13455;51.480;7.594;2023-07-31T00:25:11;5.70;;;2.70;;
25567;SDS011;13455;51.480;7.594;2023-07-31T00:27:37;5.90;;;2.60;;
25567;SDS011;13455;51.480;7.594;2023-07-31T00:30:02;6.57;;;2.80;;
25567;SDS011;13455;51.480;7.594;2023-07-31T00:32:28;5.78;;;2.67;;
25567;SDS011;13455;51.480;7.594;2023-07-31T00:34:54;7.10;;;2.67;;
25567;SDS011;13455;51.480;7.594;2023-07-31T00:37:20;7.00;;;2.50;;
25567;SDS011;13455;51.480;7.594;2023-07-31T00:39:45;6.68;;;2.75;;
25567;SDS011;13455;51.480;7.594;2023-07-31T00:42:11;7.40;;;2.60;;
25567;SDS011;13455;51.480;7.594;2023-07-31T00:44:37;6.63;;;2.60;;
25567;SDS011;13455;51.480;7.594;2023-07-31T00:47:03;6.65;;;2.80;;
25567;SDS011;13455;51.480;7.594;2023-07-31T00:49:29;6.78;;;2.70;;
25567;SDS011;13455;51.480;7.594;2023-07-31T00:51:55;9.25;;;2.92;;
25567;SDS011;13455;51.480;7.594;2023-07-31T00:54:22;7.80;;;2.90;;
25567;SDS011;13455;51.480;7.594;2023-07-31T00:56:48;7.63;;;2.90;;
25567;SDS011;13455;51.480;7.594;2023-07-31T00:59:16;9.00;;;3.20;;
25567;SDS011;13455;51.480;7.594;2023-07-31T01:01:43;6.47;;;2.87;;
25567;SDS011;13455;51.480;7.594;2023-07-31T01:04:09;6.90;;;2.88;;
25567;SDS011;13455;51.480;7.594;2023-07-31T01:06:37;7.28;;;3.08;;
25567;SDS011;13455;51.480;7.594;2023-07-31T01:09:11;7.80;;;3.30;;
25567;SDS011;13455;51.480;7.594;2023-07-31T01:11:51;8.18;;;3.53;;
25567;SDS011;13455;51.480;7.594;2023-07-31T01:14:18;9.38;;;3.40;;
25567;SDS011;13455;51.480;7.594;2023-07-31T01:16:44;12.23;;;3.80;;
25567;SDS011;13455;51.480;7.594;2023-07-31T01:19:10;9.20;;;3.80;;
25567;SDS011;13455;51.480;7.594;2023-07-31T01:26:38;13.07;;;4.30;;
25567;SDS011;13455;51.480;7.594;2023-07-31T01:32:06;12.00;;;4.45;;
25567;SDS011;13455;51.480;7.594;2023-07-31T01:34:34;13.30;;;4.37;;
25567;SDS011;13455;51.480;7.594;2023-07-31T01:37:01;12.77;;;4.40;;
25567;SDS011;13455;51.480;7.594;2023-07-31T01:39:28;13.20;;;4.50;;
25567;SDS011;13455;51.480;7.594;2023-07-31T01:41:53;12.40;;;4.30;;
25567;SDS011;13455;51.480;7.594;2023-07-31T01:44:19;12.33;;;4.43;;
25567;SDS011;13455;51.480;7.594;2023-07-31T01:46:45;13.32;;;4.35;;
25567;SDS011;13455;51.480;7.594;2023-07-31T01:49:10;12.48;;;4.50;;
25567;SDS011;13455;51.480;7.594;2023-07-31T01:51:36;12.70;;;4.30;;
25567;SDS011;13455;51.480;7.594;2023-07-31T01:54:02;12.67;;;4.00;;
25567;SDS011;13455;51.480;7.594;2023-07-31T01:56:28;11.45;;;4.10;;
25567;SDS011;13455;51.480;7.594;2023-07-31T01:58:53;9.80;;;4.00;;
25567;SDS011;13455;51.480;7.594;2023-07-31T02:01:19;10.68;;;3.80;;
25567;SDS011;13455;51.480;7.594;2023-07-31T02:03:45;12.48;;;4.20;;
25567;SDS011;13455;51.480;7.594;2023-07-31T02:06:10;10.13;;;3.90;;
25567;SDS011;13455;51.480;7.594;2023-07-31T02:08:36;10.97;;;4.00;;
25567;SDS011;13455;51.480;7.594;2023-07-31T02:11:02;10.75;;;3.85;;
25567;SDS011;13455;51.480;7.594;2023-07-31T02:13:28;9.82;;;4.00;;
25567;SDS011;13455;51.480;7.594;2023-07-31T02:15:53;12.52;;;4.05;;
25567;SDS011;13455;51.480;7.594;2023-07-31T02:18:19;11.47;;;3.60;;
25567;SDS011;13455;51.480;7.594;2023-07-31T02:20:51;10.17;;;3.80;;
25567;SDS011;13455;51.480;7.594;2023-07-31T02:23:17;11.85;;;4.00;;
25567;SDS011;13455;51.480;7.594;2023-07-31T02:25:44;11.73;;;3.90;;
25567;SDS011;13455;51.480;7.594;2023-07-31T02:28:10;8.85;;;3.70;;
25567;SDS011;13455;51.480;7.594;2023-07-31T02:30:36;10.05;;;3.55;;
25567;SDS011;13455;51.480;7.594;2023-07-31T02:33:02;9.23;;;3.90;;
25567;SDS011;13455;51.480;7.594;2023-07-31T02:35:27;10.88;;;3.88;;
25567;SDS011;13455;51.480;7.594;2023-07-31T02:37:53;10.83;;;3.97;;
25567;SDS011;13455;51.480;7.594;2023-07-31T02:40:19;8.70;;;3.53;;
25567;SDS011;13455;51.480;7.594;2023-07-31T02:42:44;11.65;;;4.03;;
25567;SDS011;13455;51.480;7.594;2023-07-31T02:45:10;13.23;;;4.00;;
25567;SDS011;13455;51.480;7.594;2023-07-31T02:47:36;13.13;;;3.97;;
25567;SDS011;13455;51.480;7.594;2023-07-31T02:50:02;11.50;;;3.70;;
25567;SDS011;13455;51.480;7.594;2023-07-31T02:52:28;10.35;;;3.63;;
25567;SDS011;13455;51.480;7.594;2023-07-31T02:54:54;11.38;;;4.03;;
25567;SDS011;13455;51.480;7.594;2023-07-31T02:57:19;11.20;;;3.92;;
25567;SDS011;13455;51.480;7.594;2023-07-31T02:59:45;10.23;;;3.78;;
25567;SDS011;13455;51.480;7.594;2023-07-31T03:02:11;9.50;;;3.70;;
25567;SDS011;13455;51.480;7.594;2023-07-31T03:04:37;13.30;;;4.20;;
25567;SDS011;13455;51.480;7.594;2023-07-31T03:07:03;12.40;;;3.90;;
25567;SDS011;13455;51.480;7.594;2023-07-31T03:09:29;12.60;;;4.30;;
25567;SDS011;13455;51.480;7.594;2023-07-31T03:11:55;10.68;;;4.03;;
25567;SDS011;13455;51.480;7.594;2023-07-31T03:14:21;11.10;;;4.30;;
25567;SDS011;13455;51.480;7.594;2023-07-31T03:16:47;14.73;;;4.20;;
25567;SDS011;13455;51.480;7.594;2023-07-31T03:19:13;11.68;;;3.95;;
25567;SDS011;13455;51.480;7.594;2023-07-31T03:21:39;11.87;;;4.10;;
25567;SDS011;13455;51.480;7.594;2023-07-31T03:24:05;10.27;;;4.30;;
25567;SDS011;13455;51.480;7.594;2023-07-31T03:26:31;12.47;;;4.10;;
25567;SDS011;13455;51.480;7.594;2023-07-31T03:28:57;12.93;;;4.55;;
25567;SDS011;13455;51.480;7.594;2023-07-31T03:31:23;14.35;;;4.53;;
25567;SDS011;13455;51.480;7.594;2023-07-31T03:33:49;13.15;;;4.13;;
25567;SDS011;13455;51.480;7.594;2023-07-31T03:36:14;10.50;;;4.27;;
25567;SDS011;13455;51.480;7.594;2023-07-31T03:38:40;12.88;;;4.28;;
25567;SDS011;13455;51.480;7.594;2023-07-31T03:41:06;12.03;;;4.30;;
25567;SDS011;13455;51.480;7.594;2023-07-31T03:43:32;14.33;;;4.43;;
25567;SDS011;13455;51.480;7.594;2023-07-31T03:46:00;10.82;;;4.10;;
25567;SDS011;13455;51.480;7.594;2023-07-31T03:48:26;11.63;;;4.00;;
25567;SDS011;13455;51.480;7.594;2023-07-31T03:50:51;13.93;;;4.20;;
25567;SDS011;13455;51.480;7.594;2023-07-31T03:53:17;13.77;;;4.17;;
25567;SDS011;13455;51.480;7.594;2023-07-31T03:55:43;10.70;;;4.00;;
25567;SDS011;13455;51.480;7.594;2023-07-31T03:58:08;10.45;;;3.90;;
25567;SDS011;13455;51.480;7.594;2023-07-31T04:00:34;12.60;;;4.20;;
25567;SDS011;13455;51.480;7.594;2023-07-31T04:03:00;11.60;;;3.90;;
25567;SDS011;13455;51.480;7.594;2023-07-31T04:05:26;13.60;;;4.33;;
25567;SDS011;13455;51.480;7.594;2023-07-31T04:07:51;11.82;;;3.88;;
25567;SDS011;13455;51.480;7.594;2023-07-31T04:10:17;12.30;;;3.92;;
25567;SDS011;13455;51.480;7.594;2023-07-31T04:12:42;11.30;;;4.07;;
25567;SDS011;13455;51.480;7.594;2023-07-31T04:15:08;10.63;;;3.72;;
25567;SDS011;13455;51.480;7.594;2023-07-31T04:17:34;8.93;;;3.78;;
25567;SDS011;13455;51.480;7.594;2023-07-31T04:20:00;10.35;;;3.75;;
25567;SDS011;13455;51.480;7.594;2023-07-31T04:22:25;11.70;;;3.90;;
25567;SDS011;13455;51.480;7.594;2023-07-31T04:24:52;10.20;;;3.80;;
25567;SDS011;13455;51.480;7.594;2023-07-31T04:27:18;11.70;;;4.10;;
25567;SDS011;13455;51.480;7.594;2023-07-31T04:29:44;10.93;;;4.20;;
25567;SDS011;13455;51.480;7.594;2023-07-31T04:32:11;13.53;;;4.10;;
25567;SDS011;13455;51.480;7.594;2023-07-31T04:34:36;10.93;;;3.83;;
25567;SDS011;13455;51.480;7.594;2023-07-31T04:37:02;11.48;;;3.92;;
25567;SDS011;13455;51.480;7.594;2023-07-31T04:39:28;9.90;;;3.65;;
25567;SDS011;13455;51.480;7.594;2023-07-31T04:41:53;9.73;;;3.75;;
25567;SDS011;13455;51.480;7.594;2023-07-31T04:44:19;11.40;;;4.30;;
25567;SDS011;13455;51.480;7.594;2023-07-31T04:46:45;11.47;;;4.00;;
25567;SDS011;13455;51.480;7.594;2023-07-31T04:49:11;9.48;;;3.83;;
25567;SDS011;13455;51.480;7.594;2023-07-31T04:51:36;13.55;;;4.05;;
25567;SDS011;13455;51.480;7.594;2023-07-31T04:54:02;12.70;;;4.15;;
25567;SDS011;13455;51.480;7.594;2023-07-31T04:56:28;11.02;;;3.60;;
25567;SDS011;13455;51.480;7.594;2023-07-31T04:58:54;11.25;;;3.80;;
25567;SDS011;13455;51.480;7.594;2023-07-31T05:01:20;11.00;;;4.10;;
25567;SDS011;13455;51.480;7.594;2023-07-31T05:03:45;13.70;;;4.03;;
25567;SDS011;13455;51.480;7.594;2023-07-31T05:06:11;13.03;;;4.27;;
25567;SDS011;13455;51.480;7.594;2023-07-31T05:08:38;11.17;;;4.10;;
25567;SDS011;13455;51.480;7.594;2023-07-31T05:11:04;9.50;;;3.77;;
25567;SDS011;13455;51.480;7.594;2023-07-31T05:13:29;10.00;;;3.92;;
25567;SDS011;13455;51.480;7.594;2023-07-31T05:15:55;12.07;;;4.35;;
25567;SDS011;13455;51.480;7.594;2023-07-31T05:18:20;11.13;;;3.93;;
25567;SDS011;13455;51.480;7.594;2023-07-31T05:20:46;11.50;;;4.38;;
25567;SDS011;13455;51.480;7.594;2023-07-31T05:23:12;11.77;;;4.10;;
25567;SDS011;13455;51.480;7.594;2023-07-31T05:25:37;10.93;;;3.87;;
25567;SDS011;13455;51.480;7.594;2023-07-31T05:28:03;11.07;;;4.23;;
25567;SDS011;13455;51.480;7.594;2023-07-31T05:30:32;10.75;;;4.03;;
25567;SDS011;13455;51.480;7.594;2023-07-31T05:32:57;15.93;;;4.40;;
25567;SDS011;13455;51.480;7.594;2023-07-31T05:35:23;9.35;;;4.20;;
25567;SDS011;13455;51.480;7.594;2023-07-31T05:37:49;11.97;;;4.20;;
25567;SDS011;13455;51.480;7.594;2023-07-31T05:40:15;11.30;;;4.13;;
25567;SDS011;13455;51.480;7.594;2023-07-31T05:42:40;10.13;;;4.28;;
25567;SDS011;13455;51.480;7.594;2023-07-31T05:45:06;10.25;;;4.28;;
25567;SDS011;13455;51.480;7.594;2023-07-31T05:47:32;12.77;;;4.30;;
25567;SDS011;13455;51.480;7.594;2023-07-31T05:49:58;12.25;;;4.60;;
25567;SDS011;13455;51.480;7.594;2023-07-31T05:52:24;11.88;;;4.50;;
25567;SDS011;13455;51.480;7.594;2023-07-31T05:54:49;11.88;;;4.30;;
25567;SDS011;13455;51.480;7.594;2023-07-31T05:57:15;9.87;;;4.27;;
25567;SDS011;13455;51.480;7.594;2023-07-31T05:59:41;11.33;;;4.30;;
25567;SDS011;13455;51.480;7.594;2023-07-31T06:02:07;11.52;;;4.60;;
25567;SDS011;13455;51.480;7.594;2023-07-31T06:04:32;10.65;;;4.57;;
25567;SDS011;13455;51.480;7.594;2023-07-31T06:06:58;11.03;;;4.80;;
25567;SDS011;13455;51.480;7.594;2023-07-31T06:09:24;13.00;;;5.10;;
25567;SDS011;13455;51.480;7.594;2023-07-31T06:11:50;11.85;;;5.10;;
25567;SDS011;13455;51.480;7.594;2023-07-31T06:14:16;10.90;;;4.75;;
25567;SDS011;13455;51.480;7.594;2023-07-31T06:16:42;14.47;;;4.70;;
25567;SDS011;13455;51.480;7.594;2023-07-31T06:19:09;12.52;;;4.95;;
25567;SDS011;13455;51.480;7.594;2023-07-31T06:21:35;12.77;;;5.03;;
25567;SDS011;13455;51.480;7.594;2023-07-31T06:24:02;11.73;;;5.00;;
25567;SDS011;13455;51.480;7.594;2023-07-31T06:26:28;11.00;;;4.77;;
25567;SDS011;13455;51.480;7.594;2023-07-31T06:28:54;11.03;;;4.90;;
25567;SDS011;13455;51.480;7.594;2023-07-31T06:31:20;9.13;;;4.68;;
25567;SDS011;13455;51.480;7.594;2023-07-31T06:33:51;11.32;;;4.95;;
25567;SDS011;13455;51.480;7.594;2023-07-31T06:36:17;11.70;;;4.80;;
25567;SDS011;13455;51.480;7.594;2023-07-31T06:38:43;10.98;;;4.50;;
25567;SDS011;13455;51.480;7.594;2023-07-31T06:41:09;10.97;;;4.60;;
25567;SDS011;13455;51.480;7.594;2023-07-31T06:43:35;11.07;;;5.03;;
25567;SDS011;13455;51.480;7.594;2023-07-31T06:46:05;9.52;;;4.93;;
25567;SDS011;13455;51.480;7.594;2023-07-31T06:48:34;10.65;;;4.75;;
25567;SDS011;13455;51.480;7.594;2023-07-31T06:51:01;10.10;;;4.82;;
25567;SDS011;13455;51.480;7.594;2023-07-31T06:53:27;10.02;;;4.95;;
25567;SDS011;13455;51.480;7.594;2023-07-31T06:55:53;11.10;;;5.00;;
25567;SDS011;13455;51.480;7.594;2023-07-31T06:58:19;10.82;;;5.05;;
25567;SDS011;13455;51.480;7.594;2023-07-31T07:00:45;10.90;;;5.20;;
25567;SDS011;13455;51.480;7.594;2023-07-31T07:03:11;9.37;;;5.30;;
25567;SDS011;13455;51.480;7.594;2023-07-31T07:05:36;10.68;;;5.00;;
25567;SDS011;13455;51.480;7.594;2023-07-31T07:08:02;9.27;;;5.03;;
25567;SDS011;13455;51.480;7.594;2023-07-31T07:10:28;9.07;;;4.53;;
25567;SDS011;13455;51.480;7.594;2023-07-31T07:12:54;9.68;;;4.60;;
25567;SDS011;13455;51.480;7.594;2023-07-31T07:15:20;10.10;;;4.40;;
25567;SDS011;13455;51.480;7.594;2023-07-31T07:17:46;8.10;;;4.38;;
25567;SDS011;13455;51.480;7.594;2023-07-31T07:20:12;7.83;;;4.20;;
25567;SDS011;13455;51.480;7.594;2023-07-31T07:22:37;9.67;;;4.10;;
25567;SDS011;13455;51.480;7.594;2023-07-31T07:25:03;7.97;;;3.97;;
25567;SDS011;13455;51.480;7.594;2023-07-31T07:27:29;7.75;;;4.13;;
25567;SDS011;13455;51.480;7.594;2023-07-31T07:29:55;7.63;;;4.00;;
25567;SDS011;13455;51.480;7.594;2023-07-31T07:32:21;7.85;;;3.80;;
25567;SDS011;13455;51.480;7.594;2023-07-31T07:34:47;8.35;;;3.67;;
25567;SDS011;13455;51.480;7.594;2023-07-31T07:37:13;8.48;;;3.67;;
25567;SDS011;13455;51.480;7.594;2023-07-31T07:39:39;7.47;;;3.90;;
25567;SDS011;13455;51.480;7.594;2023-07-31T07:42:05;8.55;;;4.20;;
25567;SDS011;13455;51.480;7.594;2023-07-31T07:44:31;8.13;;;3.95;;
25567;SDS011;13455;51.480;7.594;2023-07-31T07:46:57;9.47;;;4.00;;
25567;SDS011;13455;51.480;7.594;2023-07-31T07:49:22;7.82;;;4.00;;
25567;SDS011;13455;51.480;7.594;2023-07-31T07:51:48;8.02;;;4.20;;
25567;SDS011;13455;51.480;7.594;2023-07-31T07:54:14;8.88;;;4.22;;
25567;SDS011;13455;51.480;7.594;2023-07-31T07:56:41;8.63;;;4.03;;
25567;SDS011;13455;51.480;7.594;2023-07-31T07:59:08;9.55;;;4.07;;
25567;SDS011;13455;51.480;7.594;2023-07-31T08:01:33;9.15;;;4.40;;
25567;SDS011;13455;51.480;7.594;2023-07-31T08:04:00;9.73;;;4.10;;
25567;SDS011;13455;51.480;7.594;2023-07-31T08:06:25;9.13;;;4.10;;
25567;SDS011;13455;51.480;7.594;2023-07-31T08:08:51;7.50;;;4.15;;
25567;SDS011;13455;51.480;7.594;2023-07-31T08:11:17;8.83;;;4.23;;
25567;SDS011;13455;51.480;7.594;2023-07-31T08:13:42;8.20;;;4.10;;
25567;SDS011;13455;51.480;7.594;2023-07-31T08:16:08;10.70;;;4.40;;
25567;SDS011;13455;51.480;7.594;2023-07-31T08:18:34;7.90;;;4.05;;
25567;SDS011;13455;51.480;7.594;2023-07-31T08:21:02;9.43;;;4.22;;
25567;SDS011;13455;51.480;7.594;2023-07-31T08:23:28;9.07;;;4.05;;
25567;SDS011;13455;51.480;7.594;2023-07-31T08:25:54;7.28;;;3.92;;
25567;SDS011;13455;51.480;7.594;2023-07-31T08:28:20;9.75;;;4.03;;
25567;SDS011;13455;51.480;7.594;2023-07-31T08:30:45;9.80;;;4.13;;
25567;SDS011;13455;51.480;7.594;2023-07-31T08:33:11;7.47;;;3.70;;
25567;SDS011;13455;51.480;7.594;2023-07-31T08:35:37;7.63;;;4.00;;
25567;SDS011;13455;51.480;7.594;2023-07-31T08:38:03;8.05;;;3.80;;
25567;SDS011;13455;51.480;7.594;2023-07-31T08:40:29;6.47;;;3.70;;
25567;SDS011;13455;51.480;7.594;2023-07-31T08:42:55;8.48;;;3.80;;
25567;SDS011;13455;51.480;7.594;2023-07-31T08:45:27;9.38;;;3.97;;
25567;SDS011;13455;51.480;7.594;2023-07-31T08:47:53;10.55;;;4.00;;
25567;SDS011;13455;51.480;7.594;2023-07-31T08:50:19;7.50;;;3.75;;
25567;SDS011;13455;51.480;7.594;2023-07-31T08:52:46;8.10;;;3.58;;
25567;SDS011;13455;51.480;7.594;2023-07-31T08:55:13;7.03;;;3.40;;
25567;SDS011;13455;51.480;7.594;2023-07-31T08:57:39;6.90;;;3.15;;
25567;SDS011;13455;51.480;7.594;2023-07-31T09:00:07;5.93;;;3.17;;
25567;SDS011;13455;51.480;7.594;2023-07-31T09:02:38;4.57;;;2.70;;
25567;SDS011;13455;51.480;7.594;2023-07-31T09:05:09;5.37;;;2.93;;
25567;SDS011;13455;51.480;7.594;2023-07-31T09:07:37;5.60;;;2.90;;
25567;SDS011;13455;51.480;7.594;2023-07-31T09:10:03;5.30;;;2.92;;
25567;SDS011;13455;51.480;7.594;2023-07-31T09:12:30;4.97;;;2.60;;
25567;SDS011;13455;51.480;7.594;2023-07-31T09:14:59;5.37;;;2.50;;
25567;SDS011;13455;51.480;7.594;2023-07-31T09:17:29;5.18;;;2.75;;
25567;SDS011;13455;51.480;7.594;2023-07-31T09:19:56;5.60;;;2.20;;
25567;SDS011;13455;51.480;7.594;2023-07-31T09:22:33;3.78;;;2.40;;
25567;SDS011;13455;51.480;7.594;2023-07-31T09:30:16;3.72;;;2.00;;
25567;SDS011;13455;51.480;7.594;2023-07-31T09:32:43;5.22;;;2.40;;
25567;SDS011;13455;51.480;7.594;2023-07-31T09:35:28;3.70;;;2.45;;
25567;SDS011;13455;51.480;7.594;2023-07-31T09:38:00;3.43;;;2.13;;
25567;SDS011;13455;51.480;7.594;2023-07-31T09:40:29;5.35;;;2.40;;
25567;SDS011;13455;51.480;7.594;2023-07-31T09:43:00;5.18;;;2.53;;
25567;SDS011;13455;51.480;7.594;2023-07-31T09:45:27;5.28;;;2.65;;
25567;SDS011;13455;51.480;7.594;2023-07-31T09:47:53;5.30;;;2.60;;
25567;SDS011;13455;51.480;7.594;2023-07-31T09:50:21;4.93;;;2.60;;
25567;SDS011;13455;51.480;7.594;2023-07-31T09:52:48;4.95;;;2.35;;
25567;SDS011;13455;51.480;7.594;2023-07-31T09:55:13;5.37;;;2.63;;
25567;SDS011;13455;51.480;7.594;2023-07-31T09:57:39;5.33;;;2.60;;
25567;SDS011;13455;51.480;7.594;2023-07-31T10:00:09;4.47;;;2.50;;
25567;SDS011;13455;51.480;7.594;2023-07-31T10:02:36;6.18;;;2.60;;
25567;SDS011;13455;51.480;7.594;2023-07-31T10:05:03;4.35;;;2.40;;
25567;SDS011;13455;51.480;7.594;2023-07-31T10:07:30;5.88;;;2.65;;
25567;SDS011;13455;51.480;7.594;2023-07-31T10:09:59;5.72;;;2.80;;
25567;SDS011;13455;51.480;7.594;2023-07-31T10:12:26;4.47;;;2.53;;
25567;SDS011;13455;51.480;7.594;2023-07-31T10:14:54;5.03;;;2.60;;
25567;SDS011;13455;51.480;7.594;2023-07-31T10:17:21;4.47;;;2.33;;
25567;SDS011;13455;51.480;7.594;2023-07-31T10:19:50;5.65;;;2.50;;
25567;SDS011;13455;51.480;7.594;2023-07-31T10:22:16;4.97;;;2.67;;
25567;SDS011;13455;51.480;7.594;2023-07-31T10:24:43;3.28;;;2.25;;
25567;SDS011;13455;51.480;7.594;2023-07-31T10:27:11;5.18;;;2.30;;
25567;SDS011;13455;51.480;7.594;2023-07-31T10:29:37;4.20;;;2.00;;
25567;SDS011;13455;51.480;7.594;2023-07-31T10:32:04;4.53;;;1.98;;
25567;SDS011;13455;51.480;7.594;2023-07-31T10:34:36;3.95;;;1.90;;
25567;SDS011;13455;51.480;7.594;2023-07-31T10:37:23;3.20;;;1.85;;
25567;SDS011;13455;51.480;7.594;2023-07-31T10:45:10;3.58;;;1.60;;
25567;SDS011;13455;51.480;7.594;2023-07-31T10:47:45;2.35;;;1.40;;
25567;SDS011;13455;51.480;7.594;2023-07-31T10:52:45;2.20;;;1.50;;
25567;SDS011;13455;51.480;7.594;2023-07-31T10:55:24;2.93;;;1.30;;
25567;SDS011;13455;51.480;7.594;2023-07-31T10:57:50;2.90;;;1.40;;
25567;SDS011;13455;51.480;7.594;2023-07-31T11:00:17;2.40;;;1.20;;
25567;SDS011;13455;51.480;7.594;2023-07-31T11:02:43;2.65;;;1.33;;
25567;SDS011;13455;51.480;7.594;2023-07-31T11:08:18;2.03;;;1.40;;
25567;SDS011;13455;51.480;7.594;2023-07-31T11:10:44;2.80;;;1.40;;
25567;SDS011;13455;51.480;7.594;2023-07-31T11:13:11;2.63;;;1.30;;
25567;SDS011;13455;51.480;7.594;2023-07-31T11:15:37;2.83;;;1.27;;
25567;SDS011;13455;51.480;7.594;2023-07-31T11:18:03;2.40;;;1.40;;
25567;SDS011;13455;51.480;7.594;2023-07-31T11:20:30;3.60;;;1.50;;
25567;SDS011;13455;51.480;7.594;2023-07-31T11:23:03;3.35;;;1.55;;
25567;SDS011;13455;51.480;7.594;2023-07-31T11:25:34;2.97;;;1.60;;
25567;SDS011;13455;51.480;7.594;2023-07-31T11:28:06;3.78;;;1.50;;
25567;SDS011;13455;51.480;7.594;2023-07-31T11:30:33;4.30;;;1.77;;
25567;SDS011;13455;51.480;7.594;2023-07-31T11:33:03;3.35;;;1.70;;
25567;SDS011;13455;51.480;7.594;2023-07-31T11:35:33;3.90;;;1.67;;
25567;SDS011;13455;51.480;7.594;2023-07-31T11:38:08;2.90;;;1.60;;
25567;SDS011;13455;51.480;7.594;2023-07-31T11:40:43;5.17;;;1.73;;
25567;SDS011;13455;51.480;7.594;2023-07-31T11:43:09;3.80;;;1.88;;
25567;SDS011;13455;51.480;7.594;2023-07-31T11:45:41;3.43;;;2.17;;
25567;SDS011;13455;51.480;7.594;2023-07-31T11:48:07;3.67;;;2.07;;
25567;SDS011;13455;51.480;7.594;2023-07-31T11:50:33;4.18;;;2.15;;
25567;SDS011;13455;51.480;7.594;2023-07-31T11:53:02;5.28;;;2.40;;
25567;SDS011;13455;51.480;7.594;2023-07-31T11:55:31;5.22;;;2.42;;
25567;SDS011;13455;51.480;7.594;2023-07-31T11:57:57;5.45;;;2.67;;
25567;SDS011;13455;51.480;7.594;2023-07-31T12:00:23;4.20;;;2.58;;
25567;SDS011;13455;51.480;7.594;2023-07-31T12:02:50;6.15;;;2.75;;
25567;SDS011;13455;51.480;7.594;2023-07-31T12:05:16;5.70;;;2.60;;
25567;SDS011;13455;51.480;7.594;2023-07-31T12:07:46;4.38;;;2.60;;
25567;SDS011;13455;51.480;7.594;2023-07-31T12:10:26;6.65;;;2.50;;
25567;SDS011;13455;51.480;7.594;2023-07-31T12:12:56;6.03;;;2.70;;
25567;SDS011;13455;51.480;7.594;2023-07-31T12:15:33;5.53;;;2.60;;
25567;SDS011;13455;51.480;7.594;2023-07-31T12:17:59;5.70;;;2.50;;
25567;SDS011;13455;51.480;7.594;2023-07-31T12:20:24;5.10;;;2.80;;
25567;SDS011;13455;51.480;7.594;2023-07-31T12:22:50;5.07;;;2.90;;
25567;SDS011;13455;51.480;7.594;2023-07-31T12:25:16;5.67;;;2.70;;
25567;SDS011;13455;51.480;7.594;2023-07-31T12:27:44;5.93;;;2.90;;
25567;SDS011;13455;51.480;7.594;2023-07-31T12:30:29;5.18;;;2.97;;
25567;SDS011;13455;51.480;7.594;2023-07-31T12:32:55;4.65;;;2.78;;
25567;SDS011;13455;51.480;7.594;2023-07-31T12:35:20;4.60;;;2.50;;
25567;SDS011;13455;51.480;7.594;2023-07-31T12:37:46;4.30;;;2.50;;
25567;SDS011;13455;51.480;7.594;2023-07-31T12:40:12;5.00;;;2.90;;
25567;SDS011;13455;51.480;7.594;2023-07-31T12:42:37;4.05;;;2.40;;
25567;SDS011;13455;51.480;7.594;2023-07-31T12:45:03;5.33;;;2.67;;
25567;SDS011;13455;51.480;7.594;2023-07-31T12:47:29;3.63;;;2.28;;
25567;SDS011;13455;51.480;7.594;2023-07-31T12:49:55;6.57;;;2.40;;
25567;SDS011;13455;51.480;7.594;2023-07-31T12:52:20;5.83;;;2.13;;
25567;SDS011;13455;51.480;7.594;2023-07-31T12:54:46;4.90;;;2.28;;
25567;SDS011;13455;51.480;7.594;2023-07-31T12:57:12;4.55;;;2.10;;
25567;SDS011;13455;51.480;7.594;2023-07-31T12:59:38;3.87;;;2.13;;
25567;SDS011;13455;51.480;7.594;2023-07-31T13:02:03;5.07;;;2.17;;
25567;SDS011;13455;51.480;7.594;2023-07-31T13:04:29;4.47;;;2.10;;
25567;SDS011;13455;51.480;7.594;2023-07-31T13:06:55;4.85;;;2.00;;
25567;SDS011;13455;51.480;7.594;2023-07-31T13:09:21;5.23;;;2.27;;
25567;SDS011;13455;51.480;7.594;2023-07-31T13:11:46;5.00;;;2.10;;
25567;SDS011;13455;51.480;7.594;2023-07-31T13:14:12;3.13;;;2.00;;
25567;SDS011;13455;51.480;7.594;2023-07-31T13:16:37;6.07;;;2.13;;
25567;SDS011;13455;51.480;7.594;2023-07-31T13:19:03;3.75;;;1.83;;
25567;SDS011;13455;51.480;7.594;2023-07-31T13:21:29;4.60;;;2.00;;
25567;SDS011;13455;51.480;7.594;2023-07-31T13:23:54;3.92;;;2.00;;
25567;SDS011;13455;51.480;7.594;2023-07-31T13:26:22;3.50;;;1.90;;
25567;SDS011;13455;51.480;7.594;2023-07-31T13:28:48;5.22;;;1.95;;
25567;SDS011;13455;51.480;7.594;2023-07-31T13:31:16;4.25;;;1.88;;
25567;SDS011;13455;51.480;7.594;2023-07-31T13:33:41;3.22;;;1.60;;
25567;SDS011;13455;51.480;7.594;2023-07-31T13:36:07;4.00;;;1.60;;
25567;SDS011;13455;51.480;7.594;2023-07-31T13:38:32;3.85;;;1.80;;
25567;SDS011;13455;51.480;7.594;2023-07-31T13:40:58;5.22;;;1.77;;
25567;SDS011;13455;51.480;7.594;2023-07-31T13:43:24;3.50;;;1.63;;
25567;SDS011;13455;51.480;7.594;2023-07-31T13:45:49;4.17;;;1.70;;
25567;SDS011;13455;51.480;7.594;2023-07-31T13:48:15;3.22;;;1.60;;
25567;SDS011;13455;51.480;7.594;2023-07-31T13:50:40;4.13;;;1.80;;
25567;SDS011;13455;51.480;7.594;2023-07-31T13:53:06;3.92;;;1.65;;
25567;SDS011;13455;51.480;7.594;2023-07-31T13:55:32;3.47;;;1.80;;
25567;SDS011;13455;51.480;7.594;2023-07-31T13:57:57;3.70;;;1.80;;
25567;SDS011;13455;51.480;7.594;2023-07-31T14:00:23;3.58;;;1.70;;
25567;SDS011;13455;51.480;7.594;2023-07-31T14:02:48;3.00;;;1.67;;
25567;SDS011;13455;51.480;7.594;2023-07-31T14:05:14;3.50;;;1.70;;
25567;SDS011;13455;51.480;7.594;2023-07-31T14:07:39;3.33;;;1.80;;
25567;SDS011;13455;51.480;7.594;2023-07-31T14:10:05;3.53;;;1.73;;
25567;SDS011;13455;51.480;7.594;2023-07-31T14:12:31;4.22;;;1.90;;
25567;SDS011;13455;51.480;7.594;2023-07-31T14:14:56;4.50;;;1.80;;
25567;SDS011;13455;51.480;7.594;2023-07-31T14:17:22;4.00;;;1.90;;
25567;SDS011;13455;51.480;7.594;2023-07-31T14:19:48;4.35;;;1.75;;
25567;SDS011;13455;51.480;7.594;2023-07-31T14:22:13;4.10;;;2.07;;
25567;SDS011;13455;51.480;7.594;2023-07-31T14:24:39;4.90;;;2.10;;
25567;SDS011;13455;51.480;7.594;2023-07-31T14:27:04;5.50;;;2.10;;
25567;SDS011;13455;51.480;7.594;2023-07-31T14:29:30;4.47;;;2.20;;
25567;SDS011;13455;51.480;7.594;2023-07-31T14:31:56;7.50;;;2.67;;
25567;SDS011;13455;51.480;7.594;2023-07-31T14:34:22;5.50;;;2.90;;
25567;SDS011;13455;51.480;7.594;2023-07-31T14:36:47;6.53;;;3.20;;
25567;SDS011;13455;51.480;7.594;2023-07-31T14:39:13;6.80;;;3.80;;
25567;SDS011;13455;51.480;7.594;2023-07-31T14:41:38;6.20;;;3.27;;
25567;SDS011;13455;51.480;7.594;2023-07-31T14:44:04;5.70;;;3.20;;
25567;SDS011;13455;51.480;7.594;2023-07-31T14:46:30;5.38;;;2.83;;
25567;SDS011;13455;51.480;7.594;2023-07-31T14:48:55;5.10;;;3.10;;
25567;SDS011;13455;51.480;7.594;2023-07-31T14:51:21;5.03;;;2.83;;
25567;SDS011;13455;51.480;7.594;2023-07-31T14:53:46;5.80;;;2.90;;
25567;SDS011;13455;51.480;7.594;2023-07-31T14:56:12;5.60;;;2.78;;
25567;SDS011;13455;51.480;7.594;2023-07-31T14:58:38;5.03;;;2.75;;
25567;SDS011;13455;51.480;7.594;2023-07-31T15:01:03;5.50;;;2.83;;
25567;SDS011;13455;51.480;7.594;2023-07-31T15:03:29;4.30;;;2.80;;